createdAt,value
2018-11-20T00:00:09.820Z,4.1
2018-11-20T00:01:11.840Z,4.1
2018-11-20T00:02:13.848Z,4
2018-11-20T00:03:15.864Z,4
2018-11-20T00:04:18.169Z,4
2018-11-20T00:05:20.250Z,4
2018-11-20T00:06:22.678Z,4
2018-11-20T00:07:24.690Z,4
2018-11-20T00:08:26.708Z,4
2018-11-20T00:09:28.716Z,4
2018-11-20T00:10:30.742Z,4
2018-11-20T00:11:32.748Z,4
2018-11-20T00:12:34.763Z,4
2018-11-20T00:13:36.783Z,4
2018-11-20T00:14:39.077Z,4
2018-11-20T00:15:41.105Z,4
2018-11-20T00:16:43.117Z,4
2018-11-20T00:17:45.138Z,3.9
2018-11-20T00:18:47.141Z,3.9
2018-11-20T00:19:49.163Z,4
2018-11-20T00:20:51.481Z,4
2018-11-20T00:21:53.490Z,4
2018-11-20T00:22:55.512Z,4
2018-11-20T00:23:57.517Z,4
2018-11-20T00:24:59.539Z,4
2018-11-20T00:26:01.552Z,3.9
2018-11-20T00:27:03.566Z,3.9
2018-11-20T00:28:05.569Z,3.9
2018-11-20T00:29:07.589Z,3.9
2018-11-20T00:30:09.884Z,3.9
2018-11-20T00:31:11.898Z,3.9
2018-11-20T00:32:13.922Z,3.9
2018-11-20T00:33:15.936Z,3.9
2018-11-20T00:34:17.946Z,3.9
2018-11-20T00:35:19.974Z,3.9
2018-11-20T00:36:21.983Z,3.8
2018-11-20T00:37:24.001Z,3.8
2018-11-20T00:38:26.017Z,3.9
2018-11-20T00:39:28.021Z,3.9
2018-11-20T00:40:30.335Z,3.8
2018-11-20T00:41:32.351Z,3.8
2018-11-20T00:42:34.447Z,3.8
2018-11-20T00:43:36.373Z,3.8
2018-11-20T00:44:38.401Z,3.9
2018-11-20T00:45:40.802Z,3.8
2018-11-20T00:46:42.818Z,3.8
2018-11-20T00:47:44.830Z,3.9
2018-11-20T00:48:46.859Z,3.8
2018-11-20T00:49:48.873Z,3.8
2018-11-20T00:50:51.183Z,3.8
2018-11-20T00:51:53.187Z,3.9
2018-11-20T00:52:55.600Z,3.9
2018-11-20T00:53:57.616Z,3.9
2018-11-20T00:54:59.624Z,3.9
2018-11-20T00:56:01.965Z,3.8
2018-11-20T00:57:03.963Z,3.8
2018-11-20T00:58:05.980Z,3.9
2018-11-20T00:59:08.007Z,3.9
2018-11-20T01:00:10.017Z,3.9
2018-11-20T01:01:12.020Z,3.9
2018-11-20T01:02:14.030Z,3.9
2018-11-20T01:03:16.043Z,3.9
2018-11-20T01:04:18.061Z,3.9
2018-11-20T01:05:20.813Z,4
2018-11-20T01:06:23.116Z,4
2018-11-20T01:07:25.124Z,4
2018-11-20T01:08:27.149Z,4
2018-11-20T01:09:29.154Z,4
2018-11-20T01:10:31.172Z,4
2018-11-20T01:11:33.574Z,4
2018-11-20T01:12:35.578Z,4
2018-11-20T01:13:37.593Z,4
2018-11-20T01:14:39.608Z,4
2018-11-20T01:15:41.915Z,4
2018-11-20T01:16:43.919Z,4
2018-11-20T01:17:45.945Z,4
2018-11-20T01:18:48.271Z,4
2018-11-20T01:19:50.950Z,4
2018-11-20T01:20:52.971Z,4
2018-11-20T01:21:54.975Z,4
2018-11-20T01:22:56.991Z,4.1
2018-11-20T01:23:59.328Z,4.1
2018-11-20T01:25:01.353Z,4.1
2018-11-20T01:26:03.361Z,4.1
2018-11-20T01:27:05.375Z,4.1
2018-11-20T01:28:07.387Z,4.1
2018-11-20T01:29:09.409Z,4.1
2018-11-20T01:30:11.411Z,4.1
2018-11-20T01:31:13.426Z,4.1
2018-11-20T01:32:15.444Z,4.1
2018-11-20T01:33:17.752Z,4.1
2018-11-20T01:34:19.756Z,4.1
2018-11-20T01:35:21.772Z,4.1
2018-11-20T01:36:23.787Z,4.1
2018-11-20T01:37:25.802Z,4.1
2018-11-20T01:38:27.827Z,4.1
2018-11-20T01:39:29.841Z,4.1
2018-11-20T01:40:31.851Z,4.1
2018-11-20T01:41:33.990Z,4.1
2018-11-20T01:42:36.280Z,4.1
2018-11-20T01:43:38.296Z,4.1
2018-11-20T01:44:40.312Z,4.1
2018-11-20T01:45:42.318Z,4.1
2018-11-20T01:46:44.338Z,4.1
2018-11-20T01:47:46.355Z,4.1
2018-11-20T01:48:48.377Z,4.1
2018-11-20T01:49:50.375Z,4.1
2018-11-20T01:50:52.786Z,4.1
2018-11-20T01:51:54.801Z,4.1
2018-11-20T01:52:56.820Z,4.1
2018-11-20T01:53:58.836Z,4.1
2018-11-20T01:55:00.847Z,4.1
2018-11-20T01:56:03.529Z,4.1
2018-11-20T01:57:05.818Z,4.1
2018-11-20T01:58:07.840Z,4.1
2018-11-20T01:59:09.843Z,4.1
2018-11-20T02:00:11.863Z,4.1
2018-11-20T02:01:14.268Z,4.1
2018-11-20T02:02:16.269Z,4.1
2018-11-20T02:03:18.673Z,4.1
2018-11-20T02:04:20.685Z,4.1
2018-11-20T02:05:22.703Z,4.1
2018-11-20T02:06:24.715Z,4.1
2018-11-20T02:07:26.719Z,4.1
2018-11-20T02:08:28.729Z,4.1
2018-11-20T02:09:30.745Z,4.1
2018-11-20T02:10:32.760Z,4.1
2018-11-20T02:11:35.174Z,4.1
2018-11-20T02:12:37.581Z,4.1
2018-11-20T02:13:39.593Z,4
2018-11-20T02:14:41.619Z,4.1
2018-11-20T02:15:44.197Z,4.1
2018-11-20T02:16:46.216Z,4.1
2018-11-20T02:17:48.228Z,4.1
2018-11-20T02:18:50.234Z,4.1
2018-11-20T02:19:52.542Z,4.1
2018-11-20T02:20:54.558Z,4.1
2018-11-20T02:21:56.573Z,4.1
2018-11-20T02:22:58.857Z,4.1
2018-11-20T02:24:01.547Z,4
2018-11-20T02:25:03.562Z,4.1
2018-11-20T02:26:05.580Z,4.1
2018-11-20T02:27:07.603Z,4
2018-11-20T02:28:09.605Z,4
2018-11-20T02:29:11.619Z,4
2018-11-20T02:30:13.630Z,4
2018-11-20T02:31:15.942Z,4
2018-11-20T02:32:17.943Z,4
2018-11-20T02:33:19.959Z,4
2018-11-20T02:34:21.979Z,4
2018-11-20T02:35:23.981Z,4
2018-11-20T02:36:26.006Z,3.9
2018-11-20T02:37:28.026Z,3.9
2018-11-20T02:38:30.030Z,3.9
2018-11-20T02:39:32.043Z,3.9
2018-11-20T02:40:34.071Z,3.9
2018-11-20T02:41:36.083Z,3.9
2018-11-20T02:42:38.095Z,3.9
2018-11-20T02:43:40.413Z,3.9
2018-11-20T02:44:42.721Z,3.9
2018-11-20T02:45:44.735Z,3.8
2018-11-20T02:46:47.143Z,3.8
2018-11-20T02:47:49.144Z,3.8
2018-11-20T02:48:51.552Z,3.9
2018-11-20T02:49:53.608Z,3.8
2018-11-20T02:50:55.759Z,3.8
2018-11-20T02:51:57.785Z,3.8
2018-11-20T02:52:59.795Z,3.8
2018-11-20T02:54:01.807Z,3.8
2018-11-20T02:55:03.820Z,3.8
2018-11-20T02:56:05.844Z,3.8
2018-11-20T02:57:07.849Z,3.8
2018-11-20T02:58:09.865Z,3.7
2018-11-20T02:59:11.878Z,3.8
2018-11-20T03:00:13.880Z,3.8
2018-11-20T03:01:16.294Z,3.7
2018-11-20T03:02:18.302Z,3.7
2018-11-20T03:03:20.705Z,3.7
2018-11-20T03:04:22.709Z,3.7
2018-11-20T03:05:24.736Z,3.7
2018-11-20T03:06:26.745Z,3.7
2018-11-20T03:07:29.134Z,3.6
2018-11-20T03:08:31.437Z,3.6
2018-11-20T03:09:33.721Z,3.6
2018-11-20T03:10:35.731Z,3.6
2018-11-20T03:11:37.752Z,3.6
2018-11-20T03:12:39.765Z,3.6
2018-11-20T03:13:41.767Z,3.6
2018-11-20T03:14:43.779Z,3.5
2018-11-20T03:15:46.075Z,3.6
2018-11-20T03:16:48.378Z,3.5
2018-11-20T03:17:50.401Z,3.5
2018-11-20T03:18:52.999Z,3.5
2018-11-20T03:19:55.021Z,3.5
2018-11-20T03:20:57.022Z,3.5
2018-11-20T03:21:59.039Z,3.4
2018-11-20T03:23:01.052Z,3.4
2018-11-20T03:24:03.360Z,3.4
2018-11-20T03:25:05.379Z,3.4
2018-11-20T03:26:07.386Z,3.4
2018-11-20T03:27:10.005Z,3.4
2018-11-20T03:28:12.176Z,3.4
2018-11-20T03:29:14.200Z,3.3
2018-11-20T03:30:16.479Z,3.3
2018-11-20T03:31:18.884Z,3.3
2018-11-20T03:32:20.896Z,3.3
2018-11-20T03:33:22.896Z,3.3
2018-11-20T03:34:24.923Z,3.3
2018-11-20T03:35:26.934Z,3.3
2018-11-20T03:36:28.958Z,3.3
2018-11-20T03:37:31.242Z,3.2
2018-11-20T03:38:33.302Z,3.2
2018-11-20T03:39:35.278Z,3.2
2018-11-20T03:40:37.285Z,3.2
2018-11-20T03:41:39.323Z,3.1
2018-11-20T03:42:41.717Z,3.1
2018-11-20T03:43:44.109Z,3.1
2018-11-20T03:44:46.128Z,3.2
2018-11-20T03:45:48.140Z,3.2
2018-11-20T03:46:50.450Z,3.1
2018-11-20T03:47:52.601Z,3.2
2018-11-20T03:48:54.928Z,3.2
2018-11-20T03:49:56.941Z,3.1
2018-11-20T03:50:58.961Z,3.1
2018-11-20T03:52:00.970Z,3.1
2018-11-20T03:53:02.981Z,3.1
2018-11-20T03:54:05.005Z,3.1
2018-11-20T03:55:07.012Z,3.1
2018-11-20T03:56:09.413Z,3.1
2018-11-20T03:57:11.418Z,3
2018-11-20T03:58:13.829Z,3
2018-11-20T03:59:15.840Z,3
2018-11-20T04:00:18.137Z,3
2018-11-20T04:01:20.565Z,3
2018-11-20T04:02:22.588Z,3
2018-11-20T04:03:24.591Z,3
2018-11-20T04:04:26.601Z,3
2018-11-20T04:05:28.612Z,3
2018-11-20T04:06:30.914Z,3
2018-11-20T04:07:32.941Z,2.9
2018-11-20T04:08:34.950Z,2.9
2018-11-20T04:09:36.968Z,2.9
2018-11-20T04:10:38.968Z,2.9
2018-11-20T04:11:40.990Z,2.8
2018-11-20T04:12:43.005Z,2.8
2018-11-20T04:13:45.296Z,2.8
2018-11-20T04:14:47.320Z,2.8
2018-11-20T04:15:49.323Z,2.9
2018-11-20T04:16:51.336Z,2.8
2018-11-20T04:17:53.418Z,2.8
2018-11-20T04:18:55.764Z,2.8
2018-11-20T04:19:58.055Z,2.8
2018-11-20T04:21:00.352Z,2.8
2018-11-20T04:22:02.752Z,2.8
2018-11-20T04:23:04.762Z,2.8
2018-11-20T04:24:06.786Z,2.7
2018-11-20T04:25:08.796Z,2.7
2018-11-20T04:26:10.806Z,2.7
2018-11-20T04:27:12.829Z,2.7
2018-11-20T04:28:15.506Z,2.7
2018-11-20T04:29:17.806Z,2.7
2018-11-20T04:30:19.819Z,2.7
2018-11-20T04:31:21.823Z,2.7
2018-11-20T04:32:24.510Z,2.6
2018-11-20T04:33:26.522Z,2.7
2018-11-20T04:34:28.542Z,2.6
2018-11-20T04:35:30.940Z,2.6
2018-11-20T04:36:33.326Z,2.5
2018-11-20T04:37:35.337Z,2.5
2018-11-20T04:38:37.922Z,2.5
2018-11-20T04:39:39.922Z,2.5
2018-11-20T04:40:41.998Z,2.5
2018-11-20T04:41:44.308Z,2.5
2018-11-20T04:42:46.323Z,2.5
2018-11-20T04:43:48.327Z,2.5
2018-11-20T04:44:50.348Z,2.5
2018-11-20T04:45:52.654Z,2.5
2018-11-20T04:46:54.943Z,2.5
2018-11-20T04:47:56.963Z,2.5
2018-11-20T04:48:58.967Z,2.5
2018-11-20T04:50:02.238Z,2.5
2018-11-20T04:51:04.149Z,2.5
2018-11-20T04:52:06.165Z,2.5
2018-11-20T04:53:08.463Z,2.5
2018-11-20T04:54:10.476Z,2.5
2018-11-20T04:55:12.486Z,2.5
2018-11-20T04:56:14.497Z,2.5
2018-11-20T04:57:16.517Z,2.5
2018-11-20T04:58:18.525Z,2.5
2018-11-20T04:59:20.531Z,2.5
2018-11-20T05:00:22.846Z,2.5
2018-11-20T05:01:24.853Z,2.5
2018-11-20T05:02:26.866Z,2.5
2018-11-20T05:03:28.878Z,2.5
2018-11-20T05:04:30.882Z,2.5
2018-11-20T05:05:32.905Z,2.5
2018-11-20T05:06:34.954Z,2.5
2018-11-20T05:07:36.928Z,2.5
2018-11-20T05:08:38.925Z,2.5
2018-11-20T05:09:40.950Z,2.5
2018-11-20T05:10:42.961Z,2.5
2018-11-20T05:11:44.977Z,2.5
2018-11-20T05:12:46.994Z,2.6
2018-11-20T05:13:49.390Z,2.6
2018-11-20T05:14:51.703Z,2.6
2018-11-20T05:15:53.708Z,2.6
2018-11-20T05:16:55.733Z,2.6
2018-11-20T05:17:57.733Z,2.6
2018-11-20T05:18:59.745Z,2.6
2018-11-20T05:20:01.764Z,2.6
2018-11-20T05:21:04.060Z,2.6
2018-11-20T05:22:06.360Z,2.7
2018-11-20T05:23:08.370Z,2.7
2018-11-20T05:24:10.377Z,2.7
2018-11-20T05:25:12.392Z,2.7
2018-11-20T05:26:14.414Z,2.7
2018-11-20T05:27:16.427Z,2.7
2018-11-20T05:28:18.442Z,2.7
2018-11-20T05:29:20.447Z,2.7
2018-11-20T05:30:22.453Z,2.7
2018-11-20T05:31:24.470Z,2.8
2018-11-20T05:32:26.479Z,2.8
2018-11-20T05:33:28.478Z,2.8
2018-11-20T05:34:30.494Z,2.8
2018-11-20T05:35:32.504Z,2.8
2018-11-20T05:36:34.518Z,2.8
2018-11-20T05:37:36.541Z,2.8
2018-11-20T05:38:38.548Z,2.8
2018-11-20T05:39:40.559Z,2.8
2018-11-20T05:40:42.565Z,2.8
2018-11-20T05:41:44.589Z,2.9
2018-11-20T05:42:46.978Z,2.8
2018-11-20T05:43:49.280Z,2.8
2018-11-20T05:44:51.577Z,2.8
2018-11-20T05:45:53.864Z,2.8
2018-11-20T05:46:55.971Z,2.8
2018-11-20T05:47:57.899Z,2.9
2018-11-20T05:48:59.917Z,2.9
2018-11-20T05:50:02.586Z,2.9
2018-11-20T05:51:04.600Z,2.9
2018-11-20T05:52:06.612Z,2.9
2018-11-20T05:53:08.629Z,2.9
2018-11-20T05:54:10.630Z,2.8
2018-11-20T05:55:12.655Z,2.9
2018-11-20T05:56:14.665Z,2.9
2018-11-20T05:57:16.675Z,2.9
2018-11-20T05:58:19.761Z,2.8
2018-11-20T05:59:21.783Z,2.9
2018-11-20T06:00:23.797Z,2.9
2018-11-20T06:01:25.807Z,2.9
2018-11-20T06:02:27.818Z,2.9
2018-11-20T06:03:29.822Z,2.9
2018-11-20T06:04:31.831Z,2.9
2018-11-20T06:05:33.848Z,2.9
2018-11-20T06:06:35.851Z,2.9
2018-11-20T06:07:37.866Z,2.9
2018-11-20T06:08:39.878Z,2.9
2018-11-20T06:09:42.170Z,2.9
2018-11-20T06:10:44.584Z,2.9
2018-11-20T06:11:46.590Z,2.9
2018-11-20T06:12:48.984Z,2.9
2018-11-20T06:13:50.892Z,2.9
2018-11-20T06:14:52.916Z,2.9
2018-11-20T06:15:54.918Z,2.9
2018-11-20T06:16:56.931Z,2.9
2018-11-20T06:17:58.943Z,2.9
2018-11-20T06:19:01.040Z,2.9
2018-11-20T06:20:02.971Z,2.9
2018-11-20T06:21:04.979Z,2.9
2018-11-20T06:22:06.996Z,2.9
2018-11-20T06:23:08.997Z,2.9
2018-11-20T06:24:11.017Z,2.9
2018-11-20T06:25:13.031Z,2.9
2018-11-20T06:26:15.716Z,2.9
2018-11-20T06:27:18.023Z,2.9
2018-11-20T06:28:20.033Z,2.9
2018-11-20T06:29:22.142Z,2.9
2018-11-20T06:30:24.445Z,2.9
2018-11-20T06:31:26.739Z,2.9
2018-11-20T06:32:28.760Z,3
2018-11-20T06:33:30.775Z,3
2018-11-20T06:34:33.373Z,3
2018-11-20T06:35:36.113Z,3
2018-11-20T06:36:38.398Z,3
2018-11-20T06:37:40.701Z,2.9
2018-11-20T06:38:42.720Z,3
2018-11-20T06:39:44.719Z,3
2018-11-20T06:40:46.736Z,3
2018-11-20T06:41:48.753Z,3
2018-11-20T06:42:50.764Z,3
2018-11-20T06:43:52.786Z,3
2018-11-20T06:44:54.793Z,3
2018-11-20T06:45:56.814Z,3
2018-11-20T06:46:58.829Z,3
2018-11-20T06:48:00.841Z,3
2018-11-20T06:49:02.843Z,3
2018-11-20T06:50:04.859Z,3
2018-11-20T06:51:07.260Z,3
2018-11-20T06:52:09.264Z,3
2018-11-20T06:53:11.409Z,3
2018-11-20T06:54:13.296Z,3
2018-11-20T06:55:15.318Z,3
2018-11-20T06:56:17.324Z,3
2018-11-20T06:57:19.792Z,3
2018-11-20T06:58:21.778Z,3
2018-11-20T06:59:24.072Z,3
2018-11-20T07:00:26.098Z,3.1
2018-11-20T07:01:28.592Z,3.1
2018-11-20T07:02:30.554Z,3.1
2018-11-20T07:03:32.578Z,3.1
2018-11-20T07:04:34.583Z,3.1
2018-11-20T07:05:36.587Z,3.1
2018-11-20T07:06:38.598Z,3.1
2018-11-20T07:07:41.535Z,3.1
2018-11-20T07:08:43.362Z,3.1
2018-11-20T07:09:45.621Z,3.1
2018-11-20T07:10:47.636Z,3.1
2018-11-20T07:11:49.937Z,3.1
2018-11-20T07:12:51.939Z,3.1
2018-11-20T07:13:53.954Z,3.2
2018-11-20T07:14:55.971Z,3.2
2018-11-20T07:15:58.325Z,3.2
2018-11-20T07:17:00.007Z,3.2
2018-11-20T07:18:02.016Z,3.2
2018-11-20T07:19:04.311Z,3.2
2018-11-20T07:20:06.324Z,3.2
2018-11-20T07:21:09.224Z,3.2
2018-11-20T07:22:11.226Z,3.2
2018-11-20T07:23:13.532Z,3.2
2018-11-20T07:24:15.559Z,3.2
2018-11-20T07:25:17.551Z,3.2
2018-11-20T07:26:19.959Z,3.2
2018-11-20T07:27:21.971Z,3.2
2018-11-20T07:28:23.988Z,3.2
2018-11-20T07:29:26.359Z,3.2
2018-11-20T07:30:28.414Z,3.2
2018-11-20T07:31:30.437Z,3.2
2018-11-20T07:32:32.806Z,3.2
2018-11-20T07:33:34.832Z,3.2
2018-11-20T07:34:36.859Z,3.2
2018-11-20T07:35:38.841Z,3.2
2018-11-20T07:36:41.517Z,3.2
2018-11-20T07:37:43.841Z,3.2
2018-11-20T07:38:45.847Z,3.2
2018-11-20T07:39:47.859Z,3.2
2018-11-20T07:40:49.869Z,3.2
2018-11-20T07:41:51.887Z,3.2
2018-11-20T07:42:53.906Z,3.2
2018-11-20T07:43:56.124Z,3.2
2018-11-20T07:44:57.930Z,3.3
2018-11-20T07:45:59.954Z,3.3
2018-11-20T07:47:01.960Z,3.2
2018-11-20T07:48:03.970Z,3.2
2018-11-20T07:49:05.983Z,3.2
2018-11-20T07:50:07.985Z,3.2
2018-11-20T07:51:10.390Z,3.2
2018-11-20T07:52:12.405Z,3.2
2018-11-20T07:53:14.424Z,3.2
2018-11-20T07:54:16.440Z,3.2
2018-11-20T07:55:18.808Z,3.2
2018-11-20T07:56:22.061Z,3.3
2018-11-20T07:57:23.900Z,3.2
2018-11-20T07:58:25.926Z,3.2
2018-11-20T07:59:27.927Z,3.2
2018-11-20T08:00:29.938Z,3.2
2018-11-20T08:01:31.946Z,3.2
2018-11-20T08:02:33.971Z,3.3
2018-11-20T08:03:36.258Z,3.3
2018-11-20T08:04:38.278Z,3.3
2018-11-20T08:05:40.294Z,3.2
2018-11-20T08:06:42.298Z,3.2
2018-11-20T08:07:44.333Z,3.2
2018-11-20T08:08:46.345Z,3.3
2018-11-20T08:09:48.353Z,3.3
2018-11-20T08:10:50.365Z,3.2
2018-11-20T08:11:52.391Z,3.3
2018-11-20T08:12:54.787Z,3.2
2018-11-20T08:13:56.806Z,3.3
2018-11-20T08:14:58.820Z,3.3
2018-11-20T08:16:02.051Z,3.3
2018-11-20T08:17:03.883Z,3.2
2018-11-20T08:18:05.905Z,3.3
2018-11-20T08:19:07.905Z,3.4
2018-11-20T08:20:09.925Z,3.3
2018-11-20T08:21:11.940Z,3.2
2018-11-20T08:22:14.236Z,3.3
2018-11-20T08:23:16.521Z,3.3
2018-11-20T08:24:18.540Z,3.3
2018-11-20T08:25:21.090Z,3.2
2018-11-20T08:26:23.230Z,3.2
2018-11-20T08:27:25.329Z,3.2
2018-11-20T08:28:27.356Z,3.3
2018-11-20T08:29:29.366Z,3.3
2018-11-20T08:30:31.382Z,3.3
2018-11-20T08:31:33.411Z,3.4
2018-11-20T08:32:35.414Z,3.3
2018-11-20T08:33:37.755Z,3.3
2018-11-20T08:34:39.715Z,3.3
2018-11-20T08:35:41.739Z,3.3
2018-11-20T08:36:43.771Z,3.3
2018-11-20T08:37:45.753Z,3.2
2018-11-20T08:38:47.771Z,3.2
2018-11-20T08:39:49.778Z,3.3
2018-11-20T08:40:51.805Z,3.2
2018-11-20T08:41:54.104Z,3.3
2018-11-20T08:42:56.413Z,3.3
2018-11-20T08:43:58.710Z,3.3
2018-11-20T08:45:00.741Z,3.3
2018-11-20T08:46:02.755Z,3.3
2018-11-20T08:47:04.768Z,3.3
2018-11-20T08:48:07.067Z,3.3
2018-11-20T08:49:09.067Z,3.3
2018-11-20T08:50:11.375Z,3.3
2018-11-20T08:51:13.390Z,3.3
2018-11-20T08:52:15.393Z,3.3
2018-11-20T08:53:17.415Z,3.3
2018-11-20T08:54:19.429Z,3.3
2018-11-20T08:55:21.443Z,3.4
2018-11-20T08:56:23.466Z,3.4
2018-11-20T08:57:26.041Z,3.4
2018-11-20T08:58:28.726Z,3.4
2018-11-20T08:59:31.122Z,3.3
2018-11-20T09:00:33.150Z,3.3
2018-11-20T09:01:35.443Z,3.4
2018-11-20T09:02:37.956Z,3.4
2018-11-20T09:03:40.313Z,3.4
2018-11-20T09:04:42.315Z,3.4
2018-11-20T09:05:44.719Z,3.4
2018-11-20T09:06:46.731Z,3.5
2018-11-20T09:07:48.751Z,3.5
2018-11-20T09:08:51.135Z,3.4
2018-11-20T09:09:53.200Z,3.4
2018-11-20T09:10:55.563Z,3.4
2018-11-20T09:11:57.569Z,3.4
2018-11-20T09:12:59.593Z,3.4
2018-11-20T09:14:01.598Z,3.3
2018-11-20T09:15:03.904Z,3.3
2018-11-20T09:16:05.922Z,3.4
2018-11-20T09:17:07.938Z,3.4
2018-11-20T09:18:10.327Z,3.4
2018-11-20T09:19:12.341Z,3.4
2018-11-20T09:20:14.439Z,3.4
2018-11-20T09:21:16.482Z,3.4
2018-11-20T09:22:18.775Z,3.4
2018-11-20T09:23:20.789Z,3.3
2018-11-20T09:24:22.803Z,3.3
2018-11-20T09:25:25.524Z,3.4
2018-11-20T09:26:27.904Z,3.4
2018-11-20T09:27:29.917Z,3.5
2018-11-20T09:28:31.933Z,3.5
2018-11-20T09:29:33.935Z,3.5
2018-11-20T09:30:35.954Z,3.4
2018-11-20T09:31:37.971Z,3.4
2018-11-20T09:32:39.995Z,3.4
2018-11-20T09:33:42.388Z,3.4
2018-11-20T09:34:44.445Z,3.4
2018-11-20T09:35:47.035Z,3.4
2018-11-20T09:36:49.267Z,3.3
2018-11-20T09:37:51.281Z,3.3
2018-11-20T09:38:53.588Z,3.5
2018-11-20T09:39:55.605Z,3.4
2018-11-20T09:40:57.630Z,3.4
2018-11-20T09:41:59.927Z,3.4
2018-11-20T09:43:02.232Z,3.4
2018-11-20T09:44:04.250Z,3.4
2018-11-20T09:45:06.258Z,3.4
2018-11-20T09:46:08.285Z,3.4
2018-11-20T09:47:10.429Z,3.5
2018-11-20T09:48:13.114Z,3.5
2018-11-20T09:49:15.136Z,3.5
2018-11-20T09:50:17.150Z,3.5
2018-11-20T09:51:19.540Z,3.5
2018-11-20T09:52:21.844Z,3.6
2018-11-20T09:53:23.855Z,3.5
2018-11-20T09:54:25.873Z,3.5
2018-11-20T09:55:27.900Z,3.5
2018-11-20T09:56:30.305Z,3.4
2018-11-20T09:57:32.317Z,3.4
2018-11-20T09:58:34.638Z,3.5
2018-11-20T09:59:37.016Z,3.5
2018-11-20T10:00:38.995Z,3.5
2018-11-20T10:01:41.301Z,3.5
2018-11-20T10:02:43.302Z,3.4
2018-11-20T10:03:45.840Z,3.4
2018-11-20T10:04:48.128Z,3.5
2018-11-20T10:05:50.147Z,3.4
2018-11-20T10:06:52.204Z,3.5
2018-11-20T10:07:54.466Z,3.4
2018-11-20T10:08:56.969Z,3.4
2018-11-20T10:09:58.911Z,3.5
2018-11-20T10:11:00.938Z,3.4
2018-11-20T10:12:03.517Z,3.4
2018-11-20T10:13:05.530Z,3.5
2018-11-20T10:14:07.710Z,3.4
2018-11-20T10:15:09.627Z,3.4
2018-11-20T10:16:11.846Z,3.5
2018-11-20T10:17:13.861Z,3.5
2018-11-20T10:18:16.264Z,3.5
2018-11-20T10:19:18.270Z,3.4
2018-11-20T10:20:20.294Z,3.4
2018-11-20T10:21:22.752Z,3.4
2018-11-20T10:22:25.174Z,3.4
2018-11-20T10:23:27.231Z,3.4
2018-11-20T10:24:29.633Z,3.5
2018-11-20T10:25:32.133Z,3.5
2018-11-20T10:26:34.947Z,3.5
2018-11-20T10:27:36.961Z,3.5
2018-11-20T10:28:39.248Z,3.5
2018-11-20T10:29:41.262Z,3.4
2018-11-20T10:30:43.282Z,3.4
2018-11-20T10:31:45.283Z,3.4
2018-11-20T10:32:47.303Z,3.4
2018-11-20T10:33:49.315Z,3.5
2018-11-20T10:34:51.784Z,3.4
2018-11-20T10:35:53.665Z,3.4
2018-11-20T10:36:55.679Z,3.4
2018-11-20T10:37:57.976Z,3.4
2018-11-20T10:38:59.991Z,3.5
2018-11-20T10:40:02.025Z,3.4
2018-11-20T10:41:04.026Z,3.5
2018-11-20T10:42:06.040Z,3.4
2018-11-20T10:43:08.054Z,3.5
2018-11-20T10:44:10.058Z,3.4
2018-11-20T10:45:12.096Z,3.4
2018-11-20T10:46:14.232Z,3.3
2018-11-20T10:47:16.121Z,3.3
2018-11-20T10:48:18.123Z,3.4
2018-11-20T10:49:20.197Z,3.4
2018-11-20T10:50:22.212Z,3.4
2018-11-20T10:51:24.218Z,3.4
2018-11-20T10:52:26.873Z,3.3
2018-11-20T10:53:29.233Z,3.3
2018-11-20T10:54:31.248Z,3.3
2018-11-20T10:55:33.257Z,3.3
2018-11-20T10:56:35.272Z,3.3
2018-11-20T10:57:37.293Z,3.3
2018-11-20T10:58:39.594Z,3.2
2018-11-20T10:59:42.120Z,3.3
2018-11-20T11:00:44.461Z,3.2
2018-11-20T11:01:46.465Z,3.2
2018-11-20T11:02:48.482Z,3.2
2018-11-20T11:03:50.574Z,3.2
2018-11-20T11:04:52.665Z,3.2
2018-11-20T11:05:54.595Z,3.2
2018-11-20T11:06:57.699Z,3.2
2018-11-20T11:08:00.827Z,3.3
2018-11-20T11:09:03.084Z,3.2
2018-11-20T11:10:05.091Z,3.2
2018-11-20T11:11:07.105Z,3.2
2018-11-20T11:12:09.562Z,3.2
2018-11-20T11:13:11.977Z,3.2
2018-11-20T11:14:13.985Z,3.2
2018-11-20T11:15:16.035Z,3.1
2018-11-20T11:16:18.065Z,3.1
2018-11-20T11:17:20.067Z,3.1
2018-11-20T11:18:22.175Z,3.1
2018-11-20T11:19:24.111Z,3.1
2018-11-20T11:20:26.687Z,3.1
2018-11-20T11:21:28.831Z,3.1
2018-11-20T11:22:31.333Z,3
2018-11-20T11:23:33.346Z,3
2018-11-20T11:24:35.351Z,3
2018-11-20T11:25:37.377Z,3
2018-11-20T11:26:39.379Z,3
2018-11-20T11:27:41.679Z,3
2018-11-20T11:28:43.697Z,3
2018-11-20T11:29:46.000Z,3
2018-11-20T11:30:48.000Z,3
2018-11-20T11:31:50.013Z,3
2018-11-20T11:32:52.024Z,3
2018-11-20T11:33:54.040Z,3
2018-11-20T11:34:56.039Z,3
2018-11-20T11:35:58.049Z,3
2018-11-20T11:37:00.486Z,3
2018-11-20T11:38:02.508Z,3
2018-11-20T11:39:04.603Z,3
2018-11-20T11:40:06.972Z,3
2018-11-20T11:41:09.110Z,3
2018-11-20T11:42:11.133Z,3
2018-11-20T11:43:13.147Z,3.2
2018-11-20T11:44:15.155Z,3.2
2018-11-20T11:45:17.162Z,3.2
2018-11-20T11:46:19.184Z,3.2
2018-11-20T11:47:21.184Z,3.2
2018-11-20T11:48:23.488Z,3.2
2018-11-20T11:49:25.499Z,3.2
2018-11-20T11:50:28.089Z,3.2
2018-11-20T11:51:30.419Z,3.1
2018-11-20T11:52:32.433Z,3.1
2018-11-20T11:53:34.738Z,3.1
2018-11-20T11:54:36.746Z,3.1
2018-11-20T11:55:39.058Z,3.1
2018-11-20T11:56:41.069Z,3.1
2018-11-20T11:57:43.074Z,3.1
2018-11-20T11:58:45.382Z,3.1
2018-11-20T11:59:47.390Z,3.1
2018-11-20T12:00:49.458Z,3.1
2018-11-20T12:03:55.806Z,3
2018-11-20T12:04:57.819Z,3
2018-11-20T12:05:59.832Z,3
2018-11-20T12:07:02.129Z,3
2018-11-20T12:08:04.156Z,3
2018-11-20T12:09:06.559Z,2.9
2018-11-20T12:10:08.578Z,2.9
2018-11-20T12:11:10.580Z,2.9
2018-11-20T12:12:12.887Z,2.8
2018-11-20T12:13:14.898Z,2.8
2018-11-20T12:14:16.913Z,2.7
2018-11-20T12:15:18.936Z,2.6
2018-11-20T12:16:21.619Z,2.7
2018-11-20T12:17:23.632Z,2.6
2018-11-20T12:18:25.644Z,2.6
2018-11-20T12:19:28.060Z,2.5
2018-11-20T12:20:30.633Z,2.6
2018-11-20T12:21:32.645Z,2.6
2018-11-20T12:22:34.657Z,2.6
2018-11-20T12:23:36.942Z,2.7
2018-11-20T12:24:39.246Z,2.7
2018-11-20T12:25:41.257Z,2.8
2018-11-20T12:26:43.273Z,2.8
2018-11-20T12:27:45.275Z,2.8
2018-11-20T12:28:48.668Z,2.8
2018-11-20T12:29:55.465Z,2.8
2018-11-20T12:30:57.009Z,2.8
2018-11-20T12:31:59.417Z,2.9
2018-11-20T12:33:01.421Z,2.9
2018-11-20T12:34:03.432Z,2.9
2018-11-20T12:35:05.454Z,2.9
2018-11-20T12:36:07.467Z,2.9
2018-11-20T12:37:09.769Z,2.9
2018-11-20T12:38:11.783Z,2.9
2018-11-20T12:39:13.792Z,2.9
2018-11-20T12:40:16.793Z,2.9
2018-11-20T12:41:17.832Z,2.9
2018-11-20T12:42:22.360Z,2.9
2018-11-20T12:43:22.132Z,2.9
2018-11-20T12:44:24.155Z,2.9
2018-11-20T12:45:26.164Z,2.9
2018-11-20T12:46:28.178Z,2.9
2018-11-20T12:47:30.195Z,2.9
2018-11-20T12:48:32.197Z,2.9
2018-11-20T12:49:34.215Z,3
2018-11-20T12:50:36.516Z,3
2018-11-20T12:51:38.538Z,3
2018-11-20T12:52:41.228Z,3
2018-11-20T12:53:42.847Z,3
2018-11-20T12:54:44.861Z,3
2018-11-20T12:55:46.876Z,3
2018-11-20T12:56:48.903Z,3.1
2018-11-20T12:57:50.906Z,3.1
2018-11-20T12:58:54.098Z,3.1
2018-11-20T12:59:54.926Z,3.1
2018-11-20T13:00:56.957Z,3.1
2018-11-20T13:01:59.351Z,3.1
2018-11-20T13:03:01.650Z,3.1
2018-11-20T13:04:04.053Z,3.1
2018-11-20T13:05:06.058Z,3.1
2018-11-20T13:06:08.081Z,3.2
2018-11-20T13:07:10.093Z,3.2
2018-11-20T13:08:12.099Z,3.2
2018-11-20T13:09:14.115Z,3.2
2018-11-20T13:10:16.142Z,3.2
2018-11-20T13:11:18.153Z,3.2
2018-11-20T13:12:20.169Z,3.2
2018-11-20T13:13:22.186Z,3.2
2018-11-20T13:14:24.189Z,3.2
2018-11-20T13:15:26.493Z,3.2
2018-11-20T13:16:28.513Z,3.2
2018-11-20T13:17:30.520Z,3.2
2018-11-20T13:18:32.536Z,3.2
2018-11-20T13:19:35.695Z,3.2
2018-11-20T13:20:36.846Z,3.3
2018-11-20T13:21:42.857Z,3.3
2018-11-20T13:22:47.147Z,3.3
2018-11-20T13:23:49.601Z,3.3
2018-11-20T13:24:51.167Z,3.3
2018-11-20T13:25:53.181Z,3.3
2018-11-20T13:26:55.200Z,3.3
2018-11-20T13:27:57.211Z,3.3
2018-11-20T13:28:59.224Z,3.3
2018-11-20T13:30:01.248Z,3.3
2018-11-20T13:31:03.638Z,3.3
2018-11-20T13:32:05.940Z,3.3
2018-11-20T13:33:08.334Z,3.3
2018-11-20T13:34:10.664Z,3.3
2018-11-20T13:35:13.054Z,3.3
2018-11-20T13:36:15.065Z,3.3
2018-11-20T13:37:18.170Z,3.2
2018-11-20T13:38:20.401Z,3.3
2018-11-20T13:39:22.426Z,3.3
2018-11-20T13:40:24.438Z,3.3
2018-11-20T13:41:26.444Z,3.3
2018-11-20T13:42:28.457Z,3.3
2018-11-20T13:43:32.538Z,3.3
2018-11-20T13:44:34.561Z,3.3
2018-11-20T13:45:36.577Z,3.3
2018-11-20T13:46:38.592Z,3.3
2018-11-20T13:47:40.982Z,3.3
2018-11-20T13:48:42.997Z,3.3
2018-11-20T13:49:45.015Z,3.3
2018-11-20T13:50:47.684Z,3.3
2018-11-20T13:51:49.697Z,3.3
2018-11-20T13:52:53.589Z,3.3
2018-11-20T13:53:55.599Z,3.3
2018-11-20T13:54:57.625Z,3.3
2018-11-20T13:55:59.633Z,3.3
2018-11-20T13:57:01.644Z,3.3
2018-11-20T13:58:03.653Z,3.3
2018-11-20T13:59:05.681Z,3.3
2018-11-20T14:00:07.685Z,3.3
2018-11-20T14:01:09.701Z,3.3
2018-11-20T14:02:12.004Z,3.3
2018-11-20T14:03:14.013Z,3.3
2018-11-20T14:04:16.017Z,3.3
2018-11-20T14:05:18.414Z,3.3
2018-11-20T14:06:20.453Z,3.2
2018-11-20T14:07:22.477Z,3.2
2018-11-20T14:08:24.865Z,3.2
2018-11-20T14:09:26.878Z,3.2
2018-11-20T14:10:29.280Z,3.2
2018-11-20T14:11:36.357Z,3.2
2018-11-20T14:12:38.636Z,3.2
2018-11-20T14:13:40.649Z,3.2
2018-11-20T14:14:42.659Z,3.2
2018-11-20T14:15:44.670Z,3.2
2018-11-20T14:16:46.698Z,3.2
2018-11-20T14:17:48.998Z,3.2
2018-11-20T14:18:51.297Z,3.2
2018-11-20T14:19:53.308Z,3.2
2018-11-20T14:20:55.698Z,3.2
2018-11-20T14:21:58.007Z,3.2
2018-11-20T14:23:00.026Z,3.2
2018-11-20T14:24:02.027Z,3.2
2018-11-20T14:25:04.330Z,3.2
2018-11-20T14:26:06.340Z,3.2